sensor_id;sensor_type;location;lat;lon;timestamp;P1;durP1;ratioP1;P2;durP2;ratioP2
20078;SDS011;10199;48.850;8.924;2023-11-22T00:02:03;5.47;;;3.50;;
20078;SDS011;10199;48.850;8.924;2023-11-22T00:04:31;3.63;;;3.27;;
20078;SDS011;10199;48.850;8.924;2023-11-22T00:07:01;2.67;;;2.43;;
20078;SDS011;10199;48.850;8.924;2023-11-22T00:09:29;4.83;;;3.23;;
20078;SDS011;10199;48.850;8.924;2023-11-22T00:11:57;4.13;;;3.73;;
20078;SDS011;10199;48.850;8.924;2023-11-22T00:14:27;5.57;;;4.00;;
20078;SDS011;10199;48.850;8.924;2023-11-22T00:16:55;4.97;;;3.90;;
20078;SDS011;10199;48.850;8.924;2023-11-22T00:19:24;5.47;;;4.00;;
20078;SDS011;10199;48.850;8.924;2023-11-22T00:21:52;4.73;;;4.17;;
20078;SDS011;10199;48.850;8.924;2023-11-22T00:24:22;5.03;;;4.10;;
20078;SDS011;10199;48.850;8.924;2023-11-22T00:26:50;5.73;;;4.40;;
20078;SDS011;10199;48.850;8.924;2023-11-22T00:29:18;5.17;;;4.57;;
20078;SDS011;10199;48.850;8.924;2023-11-22T00:31:46;6.53;;;4.60;;
20078;SDS011;10199;48.850;8.924;2023-11-22T00:34:14;5.30;;;4.03;;
20078;SDS011;10199;48.850;8.924;2023-11-22T00:36:43;4.93;;;4.40;;
20078;SDS011;10199;48.850;8.924;2023-11-22T00:39:11;5.30;;;4.57;;
20078;SDS011;10199;48.850;8.924;2023-11-22T00:41:41;4.90;;;4.37;;
20078;SDS011;10199;48.850;8.924;2023-11-22T00:44:09;4.87;;;4.30;;
20078;SDS011;10199;48.850;8.924;2023-11-22T00:46:37;5.20;;;4.10;;
20078;SDS011;10199;48.850;8.924;2023-11-22T00:49:05;5.10;;;4.47;;
20078;SDS011;10199;48.850;8.924;2023-11-22T00:51:34;4.73;;;4.23;;
20078;SDS011;10199;48.850;8.924;2023-11-22T00:54:03;4.77;;;3.90;;
20078;SDS011;10199;48.850;8.924;2023-11-22T00:56:31;6.10;;;4.70;;
20078;SDS011;10199;48.850;8.924;2023-11-22T00:59:02;5.30;;;4.30;;
20078;SDS011;10199;48.850;8.924;2023-11-22T01:01:30;4.00;;;3.60;;
20078;SDS011;10199;48.850;8.924;2023-11-22T01:03:59;5.10;;;4.40;;
20078;SDS011;10199;48.850;8.924;2023-11-22T01:06:27;3.90;;;3.50;;
20078;SDS011;10199;48.850;8.924;2023-11-22T01:08:55;4.93;;;4.17;;
20078;SDS011;10199;48.850;8.924;2023-11-22T01:11:23;4.77;;;4.27;;
20078;SDS011;10199;48.850;8.924;2023-11-22T01:13:51;4.50;;;4.10;;
20078;SDS011;10199;48.850;8.924;2023-11-22T01:16:21;5.37;;;4.30;;
20078;SDS011;10199;48.850;8.924;2023-11-22T01:18:49;4.80;;;4.07;;
20078;SDS011;10199;48.850;8.924;2023-11-22T01:21:28;6.37;;;4.50;;
20078;SDS011;10199;48.850;8.924;2023-11-22T01:23:56;7.63;;;4.80;;
20078;SDS011;10199;48.850;8.924;2023-11-22T01:26:25;6.53;;;4.43;;
20078;SDS011;10199;48.850;8.924;2023-11-22T01:28:53;5.00;;;4.50;;
20078;SDS011;10199;48.850;8.924;2023-11-22T01:31:22;5.03;;;4.13;;
20078;SDS011;10199;48.850;8.924;2023-11-22T01:33:50;4.53;;;3.90;;
20078;SDS011;10199;48.850;8.924;2023-11-22T01:36:18;4.63;;;3.97;;
20078;SDS011;10199;48.850;8.924;2023-11-22T01:38:46;4.83;;;4.13;;
20078;SDS011;10199;48.850;8.924;2023-11-22T01:41:14;5.10;;;3.97;;
20078;SDS011;10199;48.850;8.924;2023-11-22T01:43:42;5.07;;;3.80;;
20078;SDS011;10199;48.850;8.924;2023-11-22T01:46:13;4.57;;;3.90;;
20078;SDS011;10199;48.850;8.924;2023-11-22T01:48:51;5.80;;;4.03;;
20078;SDS011;10199;48.850;8.924;2023-11-22T01:51:20;4.30;;;3.90;;
20078;SDS011;10199;48.850;8.924;2023-11-22T01:53:48;4.07;;;3.67;;
20078;SDS011;10199;48.850;8.924;2023-11-22T01:56:20;3.83;;;3.50;;
20078;SDS011;10199;48.850;8.924;2023-11-22T01:58:49;3.83;;;3.23;;
20078;SDS011;10199;48.850;8.924;2023-11-22T02:01:18;3.73;;;3.43;;
20078;SDS011;10199;48.850;8.924;2023-11-22T02:03:47;4.27;;;3.70;;
20078;SDS011;10199;48.850;8.924;2023-11-22T02:06:16;4.33;;;3.10;;
20078;SDS011;10199;48.850;8.924;2023-11-22T02:08:45;4.83;;;3.47;;
20078;SDS011;10199;48.850;8.924;2023-11-22T02:11:13;3.90;;;3.50;;
20078;SDS011;10199;48.850;8.924;2023-11-22T02:13:48;5.03;;;4.03;;
20078;SDS011;10199;48.850;8.924;2023-11-22T02:16:17;4.00;;;3.57;;
20078;SDS011;10199;48.850;8.924;2023-11-22T02:18:45;4.90;;;3.67;;
20078;SDS011;10199;48.850;8.924;2023-11-22T02:21:17;4.23;;;3.83;;
20078;SDS011;10199;48.850;8.924;2023-11-22T02:23:46;3.80;;;3.50;;
20078;SDS011;10199;48.850;8.924;2023-11-22T02:26:15;4.23;;;3.83;;
20078;SDS011;10199;48.850;8.924;2023-11-22T02:28:45;4.37;;;3.83;;
20078;SDS011;10199;48.850;8.924;2023-11-22T02:31:15;4.00;;;3.60;;
20078;SDS011;10199;48.850;8.924;2023-11-22T02:33:44;4.53;;;3.70;;
20078;SDS011;10199;48.850;8.924;2023-11-22T02:36:12;5.00;;;3.87;;
20078;SDS011;10199;48.850;8.924;2023-11-22T02:38:40;4.20;;;3.50;;
20078;SDS011;10199;48.850;8.924;2023-11-22T02:41:10;5.03;;;4.47;;
20078;SDS011;10199;48.850;8.924;2023-11-22T02:43:38;4.13;;;3.70;;
20078;SDS011;10199;48.850;8.924;2023-11-22T02:46:08;4.80;;;4.30;;
20078;SDS011;10199;48.850;8.924;2023-11-22T02:48:36;5.03;;;4.53;;
20078;SDS011;10199;48.850;8.924;2023-11-22T02:51:04;4.43;;;4.03;;
20078;SDS011;10199;48.850;8.924;2023-11-22T02:53:33;4.13;;;3.67;;
20078;SDS011;10199;48.850;8.924;2023-11-22T02:56:01;4.50;;;4.10;;
20078;SDS011;10199;48.850;8.924;2023-11-22T02:58:30;4.67;;;3.93;;
20078;SDS011;10199;48.850;8.924;2023-11-22T03:00:58;4.40;;;4.00;;
20078;SDS011;10199;48.850;8.924;2023-11-22T03:03:26;4.70;;;4.20;;
20078;SDS011;10199;48.850;8.924;2023-11-22T03:05:54;5.70;;;4.23;;
20078;SDS011;10199;48.850;8.924;2023-11-22T03:08:22;5.47;;;4.40;;
20078;SDS011;10199;48.850;8.924;2023-11-22T03:10:56;6.17;;;4.53;;
20078;SDS011;10199;48.850;8.924;2023-11-22T03:13:24;5.13;;;4.47;;
20078;SDS011;10199;48.850;8.924;2023-11-22T03:15:53;5.53;;;4.63;;
20078;SDS011;10199;48.850;8.924;2023-11-22T03:18:22;7.57;;;4.80;;
20078;SDS011;10199;48.850;8.924;2023-11-22T03:20:50;6.10;;;4.93;;
20078;SDS011;10199;48.850;8.924;2023-11-22T03:23:20;5.50;;;4.87;;
20078;SDS011;10199;48.850;8.924;2023-11-22T03:25:48;5.33;;;4.80;;
20078;SDS011;10199;48.850;8.924;2023-11-22T03:28:16;7.33;;;5.50;;
20078;SDS011;10199;48.850;8.924;2023-11-22T03:30:44;5.83;;;4.83;;
20078;SDS011;10199;48.850;8.924;2023-11-22T03:33:14;5.40;;;4.90;;
20078;SDS011;10199;48.850;8.924;2023-11-22T03:35:42;5.83;;;4.60;;
20078;SDS011;10199;48.850;8.924;2023-11-22T03:38:10;5.53;;;4.97;;
20078;SDS011;10199;48.850;8.924;2023-11-22T03:40:38;7.00;;;5.17;;
20078;SDS011;10199;48.850;8.924;2023-11-22T03:43:06;7.33;;;5.07;;
20078;SDS011;10199;48.850;8.924;2023-11-22T03:45:36;5.20;;;4.50;;
20078;SDS011;10199;48.850;8.924;2023-11-22T03:48:04;5.90;;;4.67;;
20078;SDS011;10199;48.850;8.924;2023-11-22T03:50:34;5.33;;;4.73;;
20078;SDS011;10199;48.850;8.924;2023-11-22T03:53:02;5.17;;;4.67;;
20078;SDS011;10199;48.850;8.924;2023-11-22T03:55:30;5.80;;;4.63;;
20078;SDS011;10199;48.850;8.924;2023-11-22T03:57:58;6.63;;;4.40;;
20078;SDS011;10199;48.850;8.924;2023-11-22T04:00:26;4.57;;;4.17;;
20078;SDS011;10199;48.850;8.924;2023-11-22T04:02:55;5.00;;;4.30;;
20078;SDS011;10199;48.850;8.924;2023-11-22T04:05:27;4.50;;;4.10;;
20078;SDS011;10199;48.850;8.924;2023-11-22T04:07:56;4.77;;;3.73;;
20078;SDS011;10199;48.850;8.924;2023-11-22T04:10:24;5.23;;;3.80;;
20078;SDS011;10199;48.850;8.924;2023-11-22T04:12:52;4.77;;;3.50;;
20078;SDS011;10199;48.850;8.924;2023-11-22T04:15:20;4.40;;;4.00;;
20078;SDS011;10199;48.850;8.924;2023-11-22T04:17:48;3.90;;;3.50;;
20078;SDS011;10199;48.850;8.924;2023-11-22T04:20:16;4.90;;;4.03;;
20078;SDS011;10199;48.850;8.924;2023-11-22T04:22:45;4.10;;;3.50;;
20078;SDS011;10199;48.850;8.924;2023-11-22T04:25:14;4.67;;;3.37;;
20078;SDS011;10199;48.850;8.924;2023-11-22T04:27:42;3.90;;;3.50;;
20078;SDS011;10199;48.850;8.924;2023-11-22T04:30:10;3.77;;;3.37;;
20078;SDS011;10199;48.850;8.924;2023-11-22T04:32:40;4.43;;;3.77;;
20078;SDS011;10199;48.850;8.924;2023-11-22T04:35:09;3.43;;;3.13;;
20078;SDS011;10199;48.850;8.924;2023-11-22T04:37:37;3.90;;;3.50;;
20078;SDS011;10199;48.850;8.924;2023-11-22T04:40:05;6.90;;;3.70;;
20078;SDS011;10199;48.850;8.924;2023-11-22T04:42:36;3.77;;;3.40;;
20078;SDS011;10199;48.850;8.924;2023-11-22T04:45:04;3.80;;;3.50;;
20078;SDS011;10199;48.850;8.924;2023-11-22T04:47:33;4.23;;;3.17;;
20078;SDS011;10199;48.850;8.924;2023-11-22T04:50:01;3.97;;;3.10;;
20078;SDS011;10199;48.850;8.924;2023-11-22T04:52:29;4.03;;;3.70;;
20078;SDS011;10199;48.850;8.924;2023-11-22T04:54:58;4.53;;;3.10;;
20078;SDS011;10199;48.850;8.924;2023-11-22T04:57:26;5.73;;;3.17;;
20078;SDS011;10199;48.850;8.924;2023-11-22T04:59:56;4.97;;;3.50;;
20078;SDS011;10199;48.850;8.924;2023-11-22T05:02:23;4.73;;;3.43;;
20078;SDS011;10199;48.850;8.924;2023-11-22T05:04:53;3.73;;;3.33;;
20078;SDS011;10199;48.850;8.924;2023-11-22T05:07:21;3.83;;;3.30;;
20078;SDS011;10199;48.850;8.924;2023-11-22T05:09:49;4.17;;;3.53;;
20078;SDS011;10199;48.850;8.924;2023-11-22T05:12:17;4.27;;;3.20;;
20078;SDS011;10199;48.850;8.924;2023-11-22T05:14:45;3.67;;;3.20;;
20078;SDS011;10199;48.850;8.924;2023-11-22T05:17:14;5.10;;;3.10;;
20078;SDS011;10199;48.850;8.924;2023-11-22T05:19:42;3.83;;;3.37;;
20078;SDS011;10199;48.850;8.924;2023-11-22T05:22:10;3.87;;;3.30;;
20078;SDS011;10199;48.850;8.924;2023-11-22T05:24:38;3.83;;;3.40;;
20078;SDS011;10199;48.850;8.924;2023-11-22T05:27:07;4.77;;;3.27;;
20078;SDS011;10199;48.850;8.924;2023-11-22T05:29:36;4.17;;;3.77;;
20078;SDS011;10199;48.850;8.924;2023-11-22T05:32:06;4.37;;;2.93;;
20078;SDS011;10199;48.850;8.924;2023-11-22T05:34:35;3.57;;;3.10;;
20078;SDS011;10199;48.850;8.924;2023-11-22T05:37:04;3.93;;;3.10;;
20078;SDS011;10199;48.850;8.924;2023-11-22T05:39:32;4.80;;;3.30;;
20078;SDS011;10199;48.850;8.924;2023-11-22T05:42:00;5.40;;;3.33;;
20078;SDS011;10199;48.850;8.924;2023-11-22T05:44:29;4.10;;;3.50;;
20078;SDS011;10199;48.850;8.924;2023-11-22T05:46:57;4.43;;;3.23;;
20078;SDS011;10199;48.850;8.924;2023-11-22T05:49:25;6.10;;;3.30;;
20078;SDS011;10199;48.850;8.924;2023-11-22T05:51:54;3.70;;;3.17;;
20078;SDS011;10199;48.850;8.924;2023-11-22T05:54:22;3.97;;;3.40;;
20078;SDS011;10199;48.850;8.924;2023-11-22T05:56:50;4.40;;;2.87;;
20078;SDS011;10199;48.850;8.924;2023-11-22T05:59:18;3.90;;;3.37;;
20078;SDS011;10199;48.850;8.924;2023-11-22T06:01:46;4.23;;;3.17;;
20078;SDS011;10199;48.850;8.924;2023-11-22T06:04:14;4.07;;;3.57;;
20078;SDS011;10199;48.850;8.924;2023-11-22T06:06:42;3.83;;;3.50;;
20078;SDS011;10199;48.850;8.924;2023-11-22T06:09:12;4.10;;;3.20;;
20078;SDS011;10199;48.850;8.924;2023-11-22T06:11:41;3.73;;;3.33;;
20078;SDS011;10199;48.850;8.924;2023-11-22T06:14:09;4.40;;;3.67;;
20078;SDS011;10199;48.850;8.924;2023-11-22T06:16:37;4.47;;;3.27;;
20078;SDS011;10199;48.850;8.924;2023-11-22T06:19:05;5.87;;;3.30;;
20078;SDS011;10199;48.850;8.924;2023-11-22T06:21:33;4.37;;;3.57;;
20078;SDS011;10199;48.850;8.924;2023-11-22T06:24:03;7.20;;;3.40;;
20078;SDS011;10199;48.850;8.924;2023-11-22T06:26:36;6.63;;;3.60;;
20078;SDS011;10199;48.850;8.924;2023-11-22T06:29:06;5.33;;;4.50;;
20078;SDS011;10199;48.850;8.924;2023-11-22T06:31:35;7.73;;;5.73;;
20078;SDS011;10199;48.850;8.924;2023-11-22T06:34:03;6.90;;;5.30;;
20078;SDS011;10199;48.850;8.924;2023-11-22T06:36:31;6.97;;;4.30;;
20078;SDS011;10199;48.850;8.924;2023-11-22T06:38:59;5.20;;;3.93;;
20078;SDS011;10199;48.850;8.924;2023-11-22T06:41:27;3.60;;;3.30;;
20078;SDS011;10199;48.850;8.924;2023-11-22T06:43:57;5.07;;;3.13;;
20078;SDS011;10199;48.850;8.924;2023-11-22T06:46:25;5.00;;;3.10;;
20078;SDS011;10199;48.850;8.924;2023-11-22T06:48:54;3.33;;;2.77;;
20078;SDS011;10199;48.850;8.924;2023-11-22T06:51:22;3.47;;;3.10;;
20078;SDS011;10199;48.850;8.924;2023-11-22T06:53:50;3.43;;;3.13;;
20078;SDS011;10199;48.850;8.924;2023-11-22T06:56:19;4.67;;;3.27;;
20078;SDS011;10199;48.850;8.924;2023-11-22T06:58:47;3.37;;;3.07;;
20078;SDS011;10199;48.850;8.924;2023-11-22T07:01:16;2.80;;;2.43;;
20078;SDS011;10199;48.850;8.924;2023-11-22T07:03:44;4.83;;;2.83;;
20078;SDS011;10199;48.850;8.924;2023-11-22T07:06:12;3.20;;;2.87;;
20078;SDS011;10199;48.850;8.924;2023-11-22T07:08:40;3.60;;;2.80;;
20078;SDS011;10199;48.850;8.924;2023-11-22T07:11:09;3.90;;;2.70;;
20078;SDS011;10199;48.850;8.924;2023-11-22T07:13:37;4.97;;;2.93;;
20078;SDS011;10199;48.850;8.924;2023-11-22T07:16:07;3.13;;;2.80;;
20078;SDS011;10199;48.850;8.924;2023-11-22T07:18:37;3.70;;;2.67;;
20078;SDS011;10199;48.850;8.924;2023-11-22T07:21:05;3.80;;;2.20;;
20078;SDS011;10199;48.850;8.924;2023-11-22T07:23:33;3.37;;;2.07;;
20078;SDS011;10199;48.850;8.924;2023-11-22T07:26:02;2.77;;;2.40;;
20078;SDS011;10199;48.850;8.924;2023-11-22T07:28:30;2.73;;;2.07;;
20078;SDS011;10199;48.850;8.924;2023-11-22T07:30:58;3.00;;;2.57;;
20078;SDS011;10199;48.850;8.924;2023-11-22T07:33:28;2.77;;;2.57;;
20078;SDS011;10199;48.850;8.924;2023-11-22T07:35:58;3.50;;;3.03;;
20078;SDS011;10199;48.850;8.924;2023-11-22T07:38:26;4.10;;;2.57;;
20078;SDS011;10199;48.850;8.924;2023-11-22T07:40:56;3.47;;;2.40;;
20078;SDS011;10199;48.850;8.924;2023-11-22T07:43:24;3.43;;;2.83;;
20078;SDS011;10199;48.850;8.924;2023-11-22T07:45:52;4.57;;;2.60;;
20078;SDS011;10199;48.850;8.924;2023-11-22T07:48:20;4.07;;;2.47;;
20078;SDS011;10199;48.850;8.924;2023-11-22T07:50:49;3.97;;;2.77;;
20078;SDS011;10199;48.850;8.924;2023-11-22T07:53:20;2.83;;;2.13;;
20078;SDS011;10199;48.850;8.924;2023-11-22T07:55:48;4.27;;;2.73;;
20078;SDS011;10199;48.850;8.924;2023-11-22T07:58:16;3.80;;;2.63;;
20078;SDS011;10199;48.850;8.924;2023-11-22T08:00:44;4.13;;;2.83;;
20078;SDS011;10199;48.850;8.924;2023-11-22T08:03:12;3.37;;;2.60;;
20078;SDS011;10199;48.850;8.924;2023-11-22T08:05:42;3.50;;;2.60;;
20078;SDS011;10199;48.850;8.924;2023-11-22T08:08:14;3.50;;;2.87;;
20078;SDS011;10199;48.850;8.924;2023-11-22T08:10:44;2.90;;;2.60;;
20078;SDS011;10199;48.850;8.924;2023-11-22T08:13:14;3.77;;;2.90;;
20078;SDS011;10199;48.850;8.924;2023-11-22T08:15:42;3.70;;;2.57;;
20078;SDS011;10199;48.850;8.924;2023-11-22T08:18:13;3.27;;;2.93;;
20078;SDS011;10199;48.850;8.924;2023-11-22T08:20:43;3.53;;;2.87;;
20078;SDS011;10199;48.850;8.924;2023-11-22T08:23:11;2.47;;;2.13;;
20078;SDS011;10199;48.850;8.924;2023-11-22T08:25:40;2.33;;;2.07;;
20078;SDS011;10199;48.850;8.924;2023-11-22T08:28:09;3.03;;;2.43;;
20078;SDS011;10199;48.850;8.924;2023-11-22T08:30:37;3.07;;;2.70;;
20078;SDS011;10199;48.850;8.924;2023-11-22T08:33:08;6.47;;;2.97;;
20078;SDS011;10199;48.850;8.924;2023-11-22T08:35:36;4.23;;;2.70;;
20078;SDS011;10199;48.850;8.924;2023-11-22T08:38:04;4.43;;;3.30;;
20078;SDS011;10199;48.850;8.924;2023-11-22T08:40:36;3.80;;;3.00;;
20078;SDS011;10199;48.850;8.924;2023-11-22T08:43:04;6.30;;;3.40;;
20078;SDS011;10199;48.850;8.924;2023-11-22T08:45:33;4.47;;;3.33;;
20078;SDS011;10199;48.850;8.924;2023-11-22T08:48:02;4.97;;;3.20;;
20078;SDS011;10199;48.850;8.924;2023-11-22T08:50:31;3.47;;;2.97;;
20078;SDS011;10199;48.850;8.924;2023-11-22T08:52:59;3.50;;;2.90;;
20078;SDS011;10199;48.850;8.924;2023-11-22T08:55:27;3.27;;;2.83;;
20078;SDS011;10199;48.850;8.924;2023-11-22T08:57:55;3.73;;;2.80;;
20078;SDS011;10199;48.850;8.924;2023-11-22T09:00:23;3.60;;;3.03;;
20078;SDS011;10199;48.850;8.924;2023-11-22T09:02:56;5.00;;;3.07;;
20078;SDS011;10199;48.850;8.924;2023-11-22T09:05:24;4.87;;;3.03;;
20078;SDS011;10199;48.850;8.924;2023-11-22T09:07:53;3.77;;;3.37;;
20078;SDS011;10199;48.850;8.924;2023-11-22T09:10:22;5.47;;;3.63;;
20078;SDS011;10199;48.850;8.924;2023-11-22T09:12:50;4.00;;;3.60;;
20078;SDS011;10199;48.850;8.924;2023-11-22T09:15:18;4.03;;;3.10;;
20078;SDS011;10199;48.850;8.924;2023-11-22T09:17:52;5.23;;;3.37;;
20078;SDS011;10199;48.850;8.924;2023-11-22T09:20:22;5.47;;;3.53;;
20078;SDS011;10199;48.850;8.924;2023-11-22T09:22:51;4.00;;;3.60;;
20078;SDS011;10199;48.850;8.924;2023-11-22T09:25:22;4.60;;;3.30;;
20078;SDS011;10199;48.850;8.924;2023-11-22T09:27:51;3.13;;;2.83;;
20078;SDS011;10199;48.850;8.924;2023-11-22T09:30:22;4.33;;;3.70;;
20078;SDS011;10199;48.850;8.924;2023-11-22T09:33:04;4.67;;;3.73;;
20078;SDS011;10199;48.850;8.924;2023-11-22T09:35:35;4.27;;;3.60;;
20078;SDS011;10199;48.850;8.924;2023-11-22T09:38:05;5.57;;;3.50;;
20078;SDS011;10199;48.850;8.924;2023-11-22T09:40:37;4.40;;;3.43;;
20078;SDS011;10199;48.850;8.924;2023-11-22T09:43:08;4.57;;;3.60;;
20078;SDS011;10199;48.850;8.924;2023-11-22T09:45:37;5.40;;;3.07;;
20078;SDS011;10199;48.850;8.924;2023-11-22T09:48:07;3.97;;;3.33;;
20078;SDS011;10199;48.850;8.924;2023-11-22T09:50:47;4.53;;;4.00;;
20078;SDS011;10199;48.850;8.924;2023-11-22T09:53:22;5.27;;;4.40;;
20078;SDS011;10199;48.850;8.924;2023-11-22T09:55:58;4.30;;;3.73;;
20078;SDS011;10199;48.850;8.924;2023-11-22T09:58:27;3.87;;;3.47;;
20078;SDS011;10199;48.850;8.924;2023-11-22T10:00:58;4.30;;;3.80;;
20078;SDS011;10199;48.850;8.924;2023-11-22T10:03:27;4.30;;;3.30;;
20078;SDS011;10199;48.850;8.924;2023-11-22T10:05:57;4.20;;;3.60;;
20078;SDS011;10199;48.850;8.924;2023-11-22T10:08:26;3.27;;;2.97;;
20078;SDS011;10199;48.850;8.924;2023-11-22T10:10:56;4.27;;;3.17;;
20078;SDS011;10199;48.850;8.924;2023-11-22T10:13:24;4.97;;;3.50;;
20078;SDS011;10199;48.850;8.924;2023-11-22T10:15:52;5.90;;;3.73;;
20078;SDS011;10199;48.850;8.924;2023-11-22T10:18:21;5.13;;;3.60;;
20078;SDS011;10199;48.850;8.924;2023-11-22T10:20:51;4.83;;;3.60;;
20078;SDS011;10199;48.850;8.924;2023-11-22T10:23:20;5.80;;;3.60;;
20078;SDS011;10199;48.850;8.924;2023-11-22T10:25:52;4.27;;;3.80;;
20078;SDS011;10199;48.850;8.924;2023-11-22T10:28:21;4.33;;;3.87;;
20078;SDS011;10199;48.850;8.924;2023-11-22T10:30:51;3.80;;;3.33;;
20078;SDS011;10199;48.850;8.924;2023-11-22T10:33:19;4.73;;;4.00;;
20078;SDS011;10199;48.850;8.924;2023-11-22T10:35:50;5.83;;;4.20;;
20078;SDS011;10199;48.850;8.924;2023-11-22T10:38:20;4.83;;;3.60;;
20078;SDS011;10199;48.850;8.924;2023-11-22T10:40:49;4.47;;;3.80;;
20078;SDS011;10199;48.850;8.924;2023-11-22T10:43:18;4.67;;;3.60;;
20078;SDS011;10199;48.850;8.924;2023-11-22T10:45:48;5.37;;;3.97;;
20078;SDS011;10199;48.850;8.924;2023-11-22T10:48:20;6.27;;;4.10;;
20078;SDS011;10199;48.850;8.924;2023-11-22T10:50:48;5.23;;;4.10;;
20078;SDS011;10199;48.850;8.924;2023-11-22T10:53:21;6.97;;;4.30;;
20078;SDS011;10199;48.850;8.924;2023-11-22T10:55:56;4.73;;;3.83;;
20078;SDS011;10199;48.850;8.924;2023-11-22T10:58:33;4.30;;;3.90;;
20078;SDS011;10199;48.850;8.924;2023-11-22T11:01:04;5.13;;;3.70;;
20078;SDS011;10199;48.850;8.924;2023-11-22T11:03:35;4.20;;;3.80;;
20078;SDS011;10199;48.850;8.924;2023-11-22T11:06:07;5.13;;;3.87;;
20078;SDS011;10199;48.850;8.924;2023-11-22T11:08:41;5.97;;;4.17;;
20078;SDS011;10199;48.850;8.924;2023-11-22T11:11:11;4.53;;;4.07;;
20078;SDS011;10199;48.850;8.924;2023-11-22T11:13:41;4.93;;;4.43;;
20078;SDS011;10199;48.850;8.924;2023-11-22T11:16:10;4.80;;;4.00;;
20078;SDS011;10199;48.850;8.924;2023-11-22T11:18:38;4.77;;;4.23;;
20078;SDS011;10199;48.850;8.924;2023-11-22T11:21:08;5.57;;;4.30;;
20078;SDS011;10199;48.850;8.924;2023-11-22T11:23:39;4.70;;;3.50;;
20078;SDS011;10199;48.850;8.924;2023-11-22T11:26:14;6.63;;;4.60;;
20078;SDS011;10199;48.850;8.924;2023-11-22T11:28:45;4.77;;;3.80;;
20078;SDS011;10199;48.850;8.924;2023-11-22T11:31:15;5.27;;;4.50;;
20078;SDS011;10199;48.850;8.924;2023-11-22T11:33:53;5.70;;;4.57;;
20078;SDS011;10199;48.850;8.924;2023-11-22T11:36:23;5.10;;;4.27;;
20078;SDS011;10199;48.850;8.924;2023-11-22T11:38:55;5.00;;;4.30;;
20078;SDS011;10199;48.850;8.924;2023-11-22T11:41:25;5.03;;;4.53;;
20078;SDS011;10199;48.850;8.924;2023-11-22T11:43:55;4.37;;;3.97;;
20078;SDS011;10199;48.850;8.924;2023-11-22T11:46:24;4.60;;;3.90;;
20078;SDS011;10199;48.850;8.924;2023-11-22T11:48:54;5.00;;;4.20;;
20078;SDS011;10199;48.850;8.924;2023-11-22T11:51:23;4.30;;;3.87;;
20078;SDS011;10199;48.850;8.924;2023-11-22T11:53:54;4.77;;;4.03;;
20078;SDS011;10199;48.850;8.924;2023-11-22T11:56:23;5.23;;;4.50;;
20078;SDS011;10199;48.850;8.924;2023-11-22T11:58:53;5.37;;;3.97;;
20078;SDS011;10199;48.850;8.924;2023-11-22T12:01:27;5.37;;;4.33;;
20078;SDS011;10199;48.850;8.924;2023-11-22T12:04:00;5.33;;;3.90;;
20078;SDS011;10199;48.850;8.924;2023-11-22T12:06:28;5.57;;;4.30;;
20078;SDS011;10199;48.850;8.924;2023-11-22T12:08:59;4.30;;;3.90;;
20078;SDS011;10199;48.850;8.924;2023-11-22T12:11:28;5.53;;;4.07;;
20078;SDS011;10199;48.850;8.924;2023-11-22T12:13:57;4.80;;;4.27;;
20078;SDS011;10199;48.850;8.924;2023-11-22T12:16:25;4.67;;;4.20;;
20078;SDS011;10199;48.850;8.924;2023-11-22T12:18:54;7.77;;;5.13;;
20078;SDS011;10199;48.850;8.924;2023-11-22T12:21:23;8.20;;;4.63;;
20078;SDS011;10199;48.850;8.924;2023-11-22T12:23:52;7.50;;;4.60;;
20078;SDS011;10199;48.850;8.924;2023-11-22T12:26:23;6.83;;;4.30;;
20078;SDS011;10199;48.850;8.924;2023-11-22T12:28:51;4.63;;;4.13;;
20078;SDS011;10199;48.850;8.924;2023-11-22T12:31:22;5.43;;;4.60;;
20078;SDS011;10199;48.850;8.924;2023-11-22T12:33:51;4.97;;;4.13;;
20078;SDS011;10199;48.850;8.924;2023-11-22T12:36:20;4.90;;;4.27;;
20078;SDS011;10199;48.850;8.924;2023-11-22T12:38:48;7.13;;;4.93;;
20078;SDS011;10199;48.850;8.924;2023-11-22T12:41:16;6.03;;;4.53;;
20078;SDS011;10199;48.850;8.924;2023-11-22T12:43:57;5.13;;;4.63;;
20078;SDS011;10199;48.850;8.924;2023-11-22T12:46:44;5.27;;;4.30;;
20078;SDS011;10199;48.850;8.924;2023-11-22T12:49:13;5.73;;;4.97;;
20078;SDS011;10199;48.850;8.924;2023-11-22T12:51:45;4.80;;;4.23;;
20078;SDS011;10199;48.850;8.924;2023-11-22T12:54:14;4.37;;;3.97;;
20078;SDS011;10199;48.850;8.924;2023-11-22T12:56:42;5.53;;;4.20;;
20078;SDS011;10199;48.850;8.924;2023-11-22T12:59:12;6.00;;;4.33;;
20078;SDS011;10199;48.850;8.924;2023-11-22T13:01:40;5.37;;;4.23;;
20078;SDS011;10199;48.850;8.924;2023-11-22T13:04:08;4.93;;;4.07;;
20078;SDS011;10199;48.850;8.924;2023-11-22T13:06:36;6.27;;;4.57;;
20078;SDS011;10199;48.850;8.924;2023-11-22T13:09:04;4.80;;;4.30;;
20078;SDS011;10199;48.850;8.924;2023-11-22T13:11:33;6.27;;;4.73;;
20078;SDS011;10199;48.850;8.924;2023-11-22T13:14:01;5.73;;;4.43;;
20078;SDS011;10199;48.850;8.924;2023-11-22T13:16:31;5.10;;;4.43;;
20078;SDS011;10199;48.850;8.924;2023-11-22T13:19:00;4.83;;;4.33;;
20078;SDS011;10199;48.850;8.924;2023-11-22T13:21:28;6.70;;;5.10;;
20078;SDS011;10199;48.850;8.924;2023-11-22T13:23:57;6.73;;;5.53;;
20078;SDS011;10199;48.850;8.924;2023-11-22T13:26:26;6.73;;;5.20;;
20078;SDS011;10199;48.850;8.924;2023-11-22T13:28:54;5.17;;;4.67;;
20078;SDS011;10199;48.850;8.924;2023-11-22T13:31:22;5.60;;;4.40;;
20078;SDS011;10199;48.850;8.924;2023-11-22T13:33:52;6.17;;;4.83;;
20078;SDS011;10199;48.850;8.924;2023-11-22T13:36:20;8.73;;;4.80;;
20078;SDS011;10199;48.850;8.924;2023-11-22T13:38:48;4.67;;;4.23;;
20078;SDS011;10199;48.850;8.924;2023-11-22T13:41:16;5.40;;;4.80;;
20078;SDS011;10199;48.850;8.924;2023-11-22T13:43:44;5.23;;;4.50;;
20078;SDS011;10199;48.850;8.924;2023-11-22T13:46:14;5.60;;;4.57;;
20078;SDS011;10199;48.850;8.924;2023-11-22T13:48:43;5.97;;;4.73;;
20078;SDS011;10199;48.850;8.924;2023-11-22T13:51:13;8.70;;;4.60;;
20078;SDS011;10199;48.850;8.924;2023-11-22T13:53:41;4.90;;;4.20;;
20078;SDS011;10199;48.850;8.924;2023-11-22T13:56:11;5.30;;;4.47;;
20078;SDS011;10199;48.850;8.924;2023-11-22T13:58:39;5.33;;;4.67;;
20078;SDS011;10199;48.850;8.924;2023-11-22T14:01:07;5.23;;;4.20;;
20078;SDS011;10199;48.850;8.924;2023-11-22T14:03:40;5.60;;;4.40;;
20078;SDS011;10199;48.850;8.924;2023-11-22T14:06:08;5.97;;;4.27;;
20078;SDS011;10199;48.850;8.924;2023-11-22T14:08:41;5.77;;;4.50;;
20078;SDS011;10199;48.850;8.924;2023-11-22T14:11:09;4.87;;;4.03;;
20078;SDS011;10199;48.850;8.924;2023-11-22T14:13:38;5.33;;;4.60;;
20078;SDS011;10199;48.850;8.924;2023-11-22T14:16:07;6.23;;;4.93;;
20078;SDS011;10199;48.850;8.924;2023-11-22T14:18:36;6.30;;;4.70;;
20078;SDS011;10199;48.850;8.924;2023-11-22T14:21:05;8.67;;;5.50;;
20078;SDS011;10199;48.850;8.924;2023-11-22T14:23:34;7.07;;;5.40;;
20078;SDS011;10199;48.850;8.924;2023-11-22T14:26:03;5.77;;;4.87;;
20078;SDS011;10199;48.850;8.924;2023-11-22T14:28:32;5.60;;;4.50;;
20078;SDS011;10199;48.850;8.924;2023-11-22T14:31:00;7.00;;;4.73;;
20078;SDS011;10199;48.850;8.924;2023-11-22T14:33:28;4.50;;;4.03;;
20078;SDS011;10199;48.850;8.924;2023-11-22T14:35:58;4.73;;;3.93;;
20078;SDS011;10199;48.850;8.924;2023-11-22T14:38:26;7.30;;;4.87;;
20078;SDS011;10199;48.850;8.924;2023-11-22T14:40:54;5.70;;;4.77;;
20078;SDS011;10199;48.850;8.924;2023-11-22T14:43:24;7.10;;;5.10;;
20078;SDS011;10199;48.850;8.924;2023-11-22T14:45:52;5.17;;;4.67;;
20078;SDS011;10199;48.850;8.924;2023-11-22T14:48:20;6.97;;;5.13;;
20078;SDS011;10199;48.850;8.924;2023-11-22T14:50:49;5.70;;;5.10;;
20078;SDS011;10199;48.850;8.924;2023-11-22T14:53:18;5.40;;;4.70;;
20078;SDS011;10199;48.850;8.924;2023-11-22T14:55:46;5.87;;;4.97;;
20078;SDS011;10199;48.850;8.924;2023-11-22T14:58:14;6.30;;;5.17;;
20078;SDS011;10199;48.850;8.924;2023-11-22T15:00:43;5.83;;;5.17;;